Time;durP1;ratioP1;P1;durP2;ratioP2;P2;SDS_P1;SDS_P2;PMS_P1;PMS_P2;Temp;Humidity;BMP_temperature;BMP_pressure;BME280_temperature;BME280_humidity;BME280_pressure;Samples;Min_cycle;Max_cycle;Signal;HPM_P1;HPM_P2
2022/08/12 00:43:27;;;;;;;4.23;2.50;;;19.70;74.40;;;;;;5004709;28;20223;-63
2022/08/12 00:48:38;;;;;;;3.40;2.70;;;19.60;75.50;;;;;;5012529;28;20250;-62
2022/08/12 00:51:06;;;;;;;4.00;2.50;;;19.60;76.40;;;;;;5032372;28;20674;-63
2022/08/12 00:53:32;;;;;;;2.70;2.10;;;19.60;77.30;;;;;;5015418;28;20302;-62
2022/08/12 00:55:59;;;;;;;4.53;2.33;;;19.50;77.80;;;;;;5020694;28;20442;-62
2022/08/12 00:58:27;;;;;;;2.93;2.50;;;19.40;78.40;;;;;;5019457;28;20223;-62
2022/08/12 01:01:00;;;;;;;6.57;2.50;;;19.40;79.20;;;;;;5032382;28;20239;-62
2022/08/12 01:11:27;;;;;;;4.33;2.40;;;19.40;80.10;;;;;;5023341;28;20231;-63
2022/08/12 01:11:43;;;;;;;6.20;2.60;;;19.20;83.00;;;;;;5016477;28;20242;-62
2022/08/12 01:14:09;;;;;;;3.07;2.20;;;19.20;84.20;;;;;;5013412;28;20191;-62
2022/08/12 01:16:35;;;;;;;4.57;2.40;;;19.10;85.30;;;;;;5028146;28;20204;-62
2022/08/12 01:19:02;;;;;;;7.03;2.40;;;19.10;86.50;;;;;;5011350;28;20219;-62
2022/08/12 01:22:03;;;;;;;4.07;2.53;;;19.10;87.30;;;;;;5025447;28;20231;-62
2022/08/12 01:24:45;;;;;;;4.10;2.50;;;19.10;88.50;;;;;;5020512;28;20226;-62
2022/08/12 01:27:13;;;;;;;2.33;2.17;;;19.00;89.90;;;;;;5003615;28;20263;-62
2022/08/12 01:29:47;;;;;;;4.33;2.60;;;18.90;90.60;;;;;;5013078;28;20739;-63
2022/08/12 01:32:14;;;;;;;3.13;2.40;;;18.80;91.50;;;;;;5012719;28;20283;-63
2022/08/12 01:34:50;;;;;;;3.53;2.30;;;18.70;92.20;;;;;;5017607;28;20563;-63
2022/08/12 01:37:17;;;;;;;6.93;2.60;;;18.70;92.70;;;;;;5012172;28;20218;-63
2022/08/12 01:39:54;;;;;;;3.97;2.73;;;18.60;93.30;;;;;;5012397;28;20180;-63
2022/08/12 01:42:21;;;;;;;4.20;2.37;;;18.60;93.90;;;;;;5016947;28;20288;-63
2022/08/12 01:44:49;;;;;;;3.47;2.73;;;18.60;94.20;;;;;;5018289;28;20187;-63
2022/08/12 01:47:29;;;;;;;5.30;3.13;;;18.60;94.70;;;;;;5024223;28;20203;-63
2022/08/12 01:50:19;;;;;;;4.73;2.87;;;18.60;95.10;;;;;;5014712;28;20298;-63
2022/08/12 01:52:54;;;;;;;7.73;2.77;;;18.60;95.20;;;;;;5016924;28;20234;-63
2022/08/12 01:55:23;;;;;;;6.17;3.33;;;18.60;95.30;;;;;;5034448;28;20202;-63
2022/08/12 01:58:13;;;;;;;2.97;2.60;;;18.60;95.60;;;;;;5030912;28;20218;-62
2022/08/12 02:00:50;;;;;;;8.90;2.57;;;18.60;95.80;;;;;;5025448;28;20230;-63
2022/08/12 02:12:33;;;;;;;4.87;2.40;;;18.60;94.90;;;;;;5016173;28;20278;-63
2022/08/12 02:15:16;;;;;;;2.30;2.10;;;18.60;94.90;;;;;;5011661;28;20177;-62
2022/08/12 02:18:02;;;;;;;3.10;2.73;;;18.60;94.90;;;;;;5038371;28;20285;-61
2022/08/12 02:20:37;;;;;;;2.87;2.57;;;18.50;94.70;;;;;;5028414;28;20269;-62
2022/08/12 02:23:06;;;;;;;3.97;2.30;;;18.60;94.80;;;;;;5016929;28;20763;-63
2022/08/12 02:25:35;;;;;;;6.77;2.80;;;18.60;94.90;;;;;;5036450;28;20738;-64
2022/08/12 02:28:01;;;;;;;2.47;2.27;;;18.50;95.10;;;;;;5030766;28;20309;-64
2022/08/12 02:30:30;;;;;;;2.87;2.30;;;18.60;95.30;;;;;;5029129;28;20531;-63
2022/08/12 02:32:57;;;;;;;5.17;2.23;;;18.50;95.00;;;;;;5032141;28;20214;-63
2022/08/12 02:35:25;;;;;;;3.90;2.27;;;18.60;94.80;;;;;;5041795;28;20278;-63
2022/08/12 02:37:54;;;;;;;2.10;1.90;;;18.50;94.20;;;;;;5028834;28;20823;-63
2022/08/12 02:40:23;;;;;;;2.50;2.20;;;18.50;93.90;;;;;;5017617;28;20186;-63
2022/08/12 02:43:14;;;;;;;2.80;2.40;;;18.60;93.70;;;;;;5035265;28;20221;-63
2022/08/12 02:45:52;;;;;;;2.47;2.27;;;18.60;93.50;;;;;;5016694;28;20318;-63
2022/08/12 02:48:30;;;;;;;3.83;2.77;;;18.60;93.50;;;;;;5031656;28;20195;-63
2022/08/12 02:51:04;;;;;;;3.37;2.40;;;18.60;93.50;;;;;;5023802;28;20755;-63
2022/08/12 02:53:33;;;;;;;4.33;2.60;;;18.50;93.60;;;;;;5006103;28;20216;-61
2022/08/12 02:56:01;;;;;;;2.57;2.27;;;18.50;93.90;;;;;;5024452;28;20207;-62
2022/08/12 02:58:27;;;;;;;5.90;2.40;;;18.40;93.70;;;;;;5024620;28;20301;-62
2022/08/12 03:00:53;;;;;;;5.20;2.23;;;18.40;94.00;;;;;;5040413;28;20230;-62
2022/08/12 03:03:21;;;;;;;2.87;2.27;;;18.30;94.50;;;;;;5032460;28;20204;-62
2022/08/12 03:05:56;;;;;;;7.67;2.57;;;18.30;94.60;;;;;;5028244;28;20206;-62
2022/08/12 03:08:28;;;;;;;3.47;2.60;;;18.20;94.80;;;;;;5006025;28;20207;-62
2022/08/12 03:11:03;;;;;;;5.10;2.57;;;18.10;95.30;;;;;;5008856;28;20386;-61
2022/08/12 03:13:32;;;;;;;4.73;3.00;;;18.10;96.90;;;;;;5008456;28;20572;-61
2022/08/12 03:15:58;;;;;;;7.17;3.03;;;18.00;97.30;;;;;;5037305;28;21000;-62
2022/08/12 03:18:29;;;;;;;3.90;2.70;;;18.00;97.60;;;;;;5019609;28;20222;-61
2022/08/12 03:20:56;;;;;;;3.67;2.80;;;17.90;98.30;;;;;;5036177;28;20591;-60
2022/08/12 03:23:22;;;;;;;3.73;3.00;;;17.90;98.80;;;;;;5027738;28;20751;-61
2022/08/12 03:25:51;;;;;;;3.60;2.77;;;17.90;99.20;;;;;;5040112;28;20202;-67
2022/08/12 03:28:49;;;;;;;4.60;3.23;;;17.80;99.60;;;;;;5030416;28;20230;-66
2022/08/12 03:31:05;;;;;;;6.07;3.43;;;17.70;99.90;;;;;;5019425;28;20203;-61
2022/08/12 03:33:37;;;;;;;4.40;3.30;;;17.70;99.90;;;;;;5032329;28;20625;-61
2022/08/12 03:36:08;;;;;;;5.67;5.17;;;17.70;99.90;;;;;;5009837;28;20221;-63
2022/08/12 03:38:37;;;;;;;4.93;2.97;;;17.60;99.90;;;;;;5021681;28;20249;-61
2022/08/12 04:00:50;;;;;;;6.77;3.13;;;17.40;99.90;;;;;;5040906;28;20261;-61
2022/08/12 04:06:01;;;;;;;7.83;3.37;;;17.50;99.90;;;;;;5021283;28;20209;-63
2022/08/12 04:08:27;;;;;;;8.80;3.50;;;17.50;99.90;;;;;;5027630;28;20220;-63
2022/08/12 04:13:39;;;;;;;8.00;3.27;;;17.50;99.90;;;;;;5013352;28;20240;-62
2022/08/12 04:16:09;;;;;;;6.17;3.30;;;17.40;99.90;;;;;;5037626;28;20221;-63
2022/08/12 04:18:37;;;;;;;4.87;3.40;;;17.50;99.90;;;;;;5023053;28;20217;-63
2022/08/12 04:21:11;;;;;;;4.77;3.30;;;17.50;99.90;;;;;;5025592;28;20203;-63
2022/08/12 04:23:39;;;;;;;8.50;3.53;;;17.40;99.90;;;;;;5003754;28;20281;-62
2022/08/12 04:26:05;;;;;;;8.63;3.30;;;17.50;99.90;;;;;;5041568;28;20201;-62
2022/08/12 04:28:31;;;;;;;9.30;3.30;;;17.40;99.90;;;;;;5023979;28;20580;-62
2022/08/12 04:30:57;;;;;;;5.73;3.33;;;17.50;99.90;;;;;;5027588;28;20202;-62
2022/08/12 04:33:24;;;;;;;6.93;4.63;;;17.50;99.90;;;;;;5015983;28;20205;-62
2022/08/12 04:35:49;;;;;;;9.17;3.37;;;17.50;99.90;;;;;;5015068;28;20195;-62
2022/08/12 04:38:16;;;;;;;5.90;3.33;;;17.60;99.90;;;;;;5024696;28;20225;-62
2022/08/12 04:40:44;;;;;;;6.73;4.07;;;17.60;99.90;;;;;;5008488;28;20613;-61
2022/08/12 04:43:10;;;;;;;6.80;3.30;;;17.60;99.90;;;;;;5030361;28;20207;-62
2022/08/12 04:45:37;;;;;;;4.17;3.33;;;17.60;99.90;;;;;;5016998;28;20189;-60
2022/08/12 04:48:03;;;;;;;6.37;3.50;;;17.70;99.90;;;;;;5021424;28;20266;-61
2022/08/12 04:50:30;;;;;;;7.07;2.90;;;17.80;99.90;;;;;;5005058;28;20257;-60
2022/08/12 04:52:59;;;;;;;6.57;3.43;;;17.80;99.90;;;;;;5018965;28;20284;-61
2022/08/12 04:55:26;;;;;;;5.93;3.33;;;17.90;99.90;;;;;;5017243;28;20346;-61
2022/08/12 04:57:52;;;;;;;5.47;3.40;;;17.90;99.90;;;;;;5031855;28;20213;-62
2022/08/12 05:00:18;;;;;;;7.73;3.17;;;18.00;99.90;;;;;;5022652;28;20229;-61
2022/08/12 05:02:43;;;;;;;5.13;3.80;;;18.10;99.90;;;;;;5022360;28;20191;-61
2022/08/12 05:05:17;;;;;;;4.03;3.07;;;18.20;99.90;;;;;;5013868;28;20606;-61
2022/08/12 05:07:43;;;;;;;5.60;2.80;;;18.20;99.90;;;;;;5018155;28;20215;-63
2022/08/12 05:10:09;;;;;;;3.97;2.80;;;18.30;99.90;;;;;;5016855;28;20275;-63
2022/08/12 05:12:38;;;;;;;3.13;2.70;;;18.30;99.90;;;;;;5023085;28;20200;-64
2022/08/12 05:15:05;;;;;;;4.03;2.33;;;18.50;99.30;;;;;;5015316;28;20570;-64
2022/08/12 05:17:30;;;;;;;5.00;2.50;;;18.60;99.40;;;;;;5013250;28;20192;-64
2022/08/12 05:19:56;;;;;;;3.30;2.30;;;18.60;99.50;;;;;;5003305;28;20270;-62
2022/08/12 05:22:21;;;;;;;3.73;2.60;;;18.80;98.40;;;;;;5028714;28;20610;-62
2022/08/12 05:24:47;;;;;;;3.60;2.60;;;18.90;99.70;;;;;;5014491;28;20738;-62
2022/08/12 05:27:13;;;;;;;3.13;2.40;;;18.90;99.20;;;;;;5034751;28;20253;-63
2022/08/12 05:29:39;;;;;;;7.00;2.63;;;19.00;98.90;;;;;;5011741;28;20721;-63
2022/08/12 05:32:07;;;;;;;5.23;2.63;;;19.10;99.10;;;;;;5031453;28;20674;-63
2022/08/12 05:34:33;;;;;;;5.43;2.77;;;19.20;97.20;;;;;;5018955;28;20559;-63
2022/08/12 05:37:00;;;;;;;4.10;2.50;;;19.30;97.10;;;;;;5031747;28;20230;-63
2022/08/12 05:39:25;;;;;;;4.27;2.20;;;19.40;97.60;;;;;;5014049;28;20700;-63
2022/08/12 05:41:51;;;;;;;5.30;2.50;;;19.50;97.70;;;;;;5038841;28;20199;-62
2022/08/12 05:44:16;;;;;;;3.90;2.80;;;19.60;97.20;;;;;;5018791;28;20211;-64
2022/08/12 05:46:42;;;;;;;7.40;2.57;;;19.70;98.20;;;;;;5046197;28;20187;-63
2022/08/12 05:49:08;;;;;;;4.77;2.60;;;19.80;97.50;;;;;;5029215;28;20693;-61
2022/08/12 05:51:35;;;;;;;3.27;2.60;;;20.00;94.50;;;;;;5039353;28;20229;-62
2022/08/12 05:54:00;;;;;;;3.73;2.57;;;20.20;93.70;;;;;;5034751;28;20201;-62
2022/08/12 05:56:29;;;;;;;2.47;2.03;;;20.40;93.50;;;;;;5036323;28;20195;-63
2022/08/12 05:58:56;;;;;;;8.83;2.50;;;20.50;93.20;;;;;;5031002;28;20226;-63
2022/08/12 06:01:23;;;;;;;3.13;2.57;;;20.60;92.90;;;;;;5047497;28;20230;-61
2022/08/12 06:03:51;;;;;;;4.80;2.63;;;20.70;92.60;;;;;;5017487;28;20211;-62
2022/08/12 06:06:17;;;;;;;4.90;2.33;;;20.80;91.80;;;;;;5033554;28;20203;-61
2022/08/12 06:08:47;;;;;;;6.03;2.20;;;20.90;91.70;;;;;;5019756;28;20235;-62
2022/08/12 06:11:17;;;;;;;2.17;2.00;;;21.00;91.50;;;;;;5029660;28;20203;-62
2022/08/12 06:13:44;;;;;;;5.70;2.05;;;21.20;91.70;;;;;;5029499;28;20301;-62
2022/08/12 06:16:11;;;;;;;2.43;2.23;;;21.30;90.70;;;;;;5039989;28;20264;-62
2022/08/12 06:18:40;;;;;;;6.27;2.40;;;21.40;90.30;;;;;;5037288;28;20207;-63
2022/08/12 06:21:08;;;;;;;3.50;2.37;;;21.50;89.40;;;;;;5015782;28;20188;-62
2022/08/12 06:23:34;;;;;;;4.63;2.10;;;21.60;88.60;;;;;;5028925;28;20295;-62
2022/08/12 06:26:00;;;;;;;4.57;2.70;;;21.70;87.60;;;;;;5016833;28;20306;-62
2022/08/12 06:28:29;;;;;;;7.22;2.15;;;21.80;87.50;;;;;;5018844;28;20739;-63
2022/08/12 06:30:56;;;;;;;4.20;2.23;;;22.00;86.20;;;;;;5022233;28;20191;-63
2022/08/12 06:33:21;;;;;;;8.48;2.13;;;22.10;85.70;;;;;;5039141;28;20199;-62
2022/08/12 06:35:48;;;;;;;6.68;2.10;;;22.20;85.00;;;;;;5018379;28;20697;-63
2022/08/12 06:38:19;;;;;;;5.38;2.25;;;22.30;84.40;;;;;;5028000;28;20319;-62
2022/08/12 06:43:31;;;;;;;2.33;1.83;;;22.50;83.50;;;;;;5005795;28;20291;-62
2022/08/12 06:45:57;;;;;;;2.15;1.92;;;22.60;83.60;;;;;;5013834;28;20194;-63
2022/08/12 06:48:24;;;;;;;4.95;2.35;;;22.70;82.90;;;;;;5034088;28;20246;-62
2022/08/12 06:50:50;;;;;;;6.35;1.98;;;22.90;84.40;;;;;;5013263;28;20684;-62
2022/08/12 06:53:15;;;;;;;5.00;2.17;;;23.00;80.00;;;;;;5037402;28;20198;-63
2022/08/12 06:55:41;;;;;;;4.93;1.92;;;23.00;79.30;;;;;;5012955;28;20184;-63
2022/08/12 06:58:07;;;;;;;2.58;1.90;;;23.10;78.70;;;;;;5030477;28;20223;-62
2022/08/12 07:00:34;;;;;;;4.05;1.67;;;23.20;78.30;;;;;;5020642;28;20263;-62
2022/08/12 07:03:03;;;;;;;3.38;1.67;;;23.30;77.50;;;;;;5037279;28;20253;-62
2022/08/12 07:05:28;;;;;;;5.15;1.77;;;23.40;77.50;;;;;;5016000;28;20220;-62
2022/08/12 07:07:54;;;;;;;5.32;1.88;;;23.50;78.00;;;;;;5024398;28;20266;-62
2022/08/12 07:10:22;;;;;;;3.22;1.63;;;23.60;76.60;;;;;;5030915;28;20200;-62
2022/08/12 07:12:53;;;;;;;4.00;2.05;;;23.80;77.20;;;;;;5021984;28;20231;-62
2022/08/12 07:15:24;;;;;;;2.97;1.63;;;23.80;74.50;;;;;;5009803;28;20702;-63
2022/08/12 07:17:57;;;;;;;1.75;1.55;;;23.90;73.90;;;;;;5013032;28;20180;-62
2022/08/12 07:20:23;;;;;;;5.70;1.58;;;24.00;73.70;;;;;;5012686;28;20300;-62
2022/08/12 07:22:48;;;;;;;2.30;1.58;;;24.20;76.10;;;;;;5036176;28;20357;-62
2022/08/12 07:28:00;;;;;;;2.70;1.77;;;24.30;73.80;;;;;;5017312;28;20593;-62
2022/08/12 07:30:26;;;;;;;1.83;1.40;;;24.40;71.20;;;;;;5017193;28;20180;-62
2022/08/12 07:32:52;;;;;;;3.25;1.50;;;24.40;70.70;;;;;;5031082;28;20275;-61
2022/08/12 07:35:19;;;;;;;3.55;1.50;;;24.50;70.10;;;;;;5015046;28;20286;-62
2022/08/12 07:37:45;;;;;;;3.03;1.42;;;24.50;70.00;;;;;;5045075;28;20205;-63
2022/08/12 07:40:12;;;;;;;5.90;1.70;;;24.60;69.00;;;;;;5014998;28;20206;-62
2022/08/12 07:42:38;;;;;;;3.03;1.45;;;24.70;68.80;;;;;;5028864;28;20683;-62
2022/08/12 07:45:06;;;;;;;2.28;1.15;;;24.80;68.00;;;;;;5026039;28;20220;-62
2022/08/12 07:47:34;;;;;;;2.92;1.27;;;24.80;67.00;;;;;;5023145;28;20249;-62
2022/08/12 07:50:01;;;;;;;4.40;1.20;;;24.90;66.60;;;;;;5020677;28;20204;-62
2022/08/12 07:52:27;;;;;;;3.33;1.60;;;24.90;66.10;;;;;;5029772;28;20551;-62
2022/08/12 07:54:53;;;;;;;2.70;1.63;;;24.90;65.70;;;;;;5012363;28;20198;-63
2022/08/12 07:57:19;;;;;;;2.67;1.33;;;24.90;65.70;;;;;;5039871;28;20282;-63
2022/08/12 07:59:44;;;;;;;2.25;1.50;;;25.00;65.20;;;;;;5019826;28;20678;-62
2022/08/12 08:02:10;;;;;;;3.08;0.95;;;25.10;65.00;;;;;;5018086;28;20184;-62
2022/08/12 08:07:20;;;;;;;1.67;1.50;;;25.30;64.90;;;;;;5014768;28;20201;-62
2022/08/12 08:09:46;;;;;;;3.83;1.20;;;25.50;64.30;;;;;;5020574;28;20203;-62
2022/08/12 08:14:57;;;;;;;2.17;1.40;;;25.50;63.40;;;;;;5015306;28;20595;-62
2022/08/12 08:17:23;;;;;;;6.65;1.30;;;25.60;62.80;;;;;;5029882;28;20190;-62
2022/08/12 08:19:51;;;;;;;2.88;1.60;;;25.60;62.80;;;;;;5018085;28;20580;-62
2022/08/12 08:22:20;;;;;;;1.13;0.90;;;25.70;62.80;;;;;;5032211;28;20195;-62
2022/08/12 08:24:55;;;;;;;1.08;1.05;;;25.70;61.90;;;;;;5020548;28;20306;-62
2022/08/12 08:27:21;;;;;;;2.20;1.35;;;25.70;61.40;;;;;;5024511;28;20556;-62
2022/08/12 08:29:47;;;;;;;3.38;1.30;;;25.60;60.80;;;;;;5016625;28;20196;-62
2022/08/12 08:32:12;;;;;;;4.25;1.58;;;25.60;62.10;;;;;;5028053;28;20198;-62
2022/08/12 08:34:38;;;;;;;1.92;1.40;;;25.80;62.20;;;;;;5019470;28;20733;-62
2022/08/12 08:37:03;;;;;;;2.25;1.50;;;25.90;62.20;;;;;;5032945;28;20278;-62
2022/08/12 08:39:30;;;;;;;2.13;1.23;;;26.10;60.70;;;;;;5024333;28;20562;-62
2022/08/12 08:44:41;;;;;;;1.17;0.95;;;26.20;58.90;;;;;;5012728;28;20211;-62
2022/08/12 08:47:08;;;;;;;1.65;1.10;;;26.20;59.30;;;;;;5028187;28;20566;-62
2022/08/12 08:49:35;;;;;;;2.88;1.35;;;26.20;58.70;;;;;;5021605;28;20570;-62
2022/08/12 08:52:02;;;;;;;1.85;1.15;;;26.40;57.40;;;;;;5041469;28;20196;-62
2022/08/12 08:54:32;;;;;;;2.13;1.42;;;26.40;57.00;;;;;;5023591;28;20678;-62
2022/08/12 08:57:01;;;;;;;1.73;1.10;;;26.50;56.70;;;;;;5019733;28;20230;-62
2022/08/12 08:59:27;;;;;;;4.18;1.42;;;26.50;56.70;;;;;;5032627;28;20273;-62
2022/08/12 09:01:53;;;;;;;2.25;1.50;;;26.50;56.30;;;;;;5028819;28;20239;-62
2022/08/12 09:04:24;;;;;;;1.20;1.10;;;26.50;56.00;;;;;;5032417;28;20210;-62
2022/08/12 09:06:53;;;;;;;1.35;1.25;;;26.60;55.70;;;;;;5028412;28;20231;-62
2022/08/12 09:09:19;;;;;;;2.03;0.98;;;26.50;55.60;;;;;;5026118;28;20264;-62
2022/08/12 09:14:28;;;;;;;1.30;1.23;;;26.70;55.60;;;;;;5014466;28;20258;-64
2022/08/12 09:16:54;;;;;;;2.28;1.20;;;26.80;55.10;;;;;;5027710;28;20191;-65
2022/08/12 09:19:19;;;;;;;3.88;1.38;;;26.80;54.40;;;;;;5028690;28;20571;-65
2022/08/12 09:21:46;;;;;;;1.77;1.25;;;26.90;54.80;;;;;;5026458;28;20242;-65
2022/08/12 09:24:14;;;;;;;1.63;1.30;;;27.00;54.50;;;;;;5028488;28;20212;-72
2022/08/12 09:26:40;;;;;;;3.03;0.90;;;27.10;54.40;;;;;;5017485;28;20192;-65
2022/08/12 09:29:06;;;;;;;1.27;1.08;;;27.10;55.60;;;;;;5033601;28;20919;-65
2022/08/12 09:31:33;;;;;;;0.73;0.73;;;27.00;55.00;;;;;;5013583;28;20230;-65
2022/08/12 09:33:58;;;;;;;1.85;1.05;;;27.00;54.50;;;;;;5022480;28;20193;-65
2022/08/12 09:36:24;;;;;;;2.00;1.40;;;27.10;55.90;;;;;;5019152;28;20519;-65
2022/08/12 09:38:49;;;;;;;2.67;1.55;;;27.10;53.80;;;;;;5018213;28;20195;-65
2022/08/12 09:41:15;;;;;;;3.10;2.72;;;27.10;54.60;;;;;;5015892;28;20223;-65
2022/08/12 09:46:32;;;;;;;3.28;1.40;;;27.20;54.70;;;;;;5021238;28;20202;-65
2022/08/12 09:48:58;;;;;;;2.20;1.45;;;27.30;53.70;;;;;;5018533;28;20618;-65
2022/08/12 09:51:25;;;;;;;4.45;0.90;;;27.30;54.00;;;;;;5018861;28;20187;-65
2022/08/12 09:53:51;;;;;;;1.05;0.98;;;27.40;52.20;;;;;;5021771;28;20202;-65
2022/08/12 09:56:18;;;;;;;2.42;1.20;;;27.40;50.70;;;;;;5014962;28;20184;-65
2022/08/12 09:58:46;;;;;;;1.10;1.08;;;27.40;50.20;;;;;;5038421;28;20195;-65
2022/08/12 10:01:12;;;;;;;1.73;1.40;;;27.40;49.90;;;;;;5013171;28;20242;-67
2022/08/12 10:03:42;;;;;;;2.58;1.63;;;27.40;50.00;;;;;;5028795;28;20196;-64
2022/08/12 10:06:08;;;;;;;2.42;1.30;;;27.50;52.40;;;;;;5016986;28;20199;-65
2022/08/12 10:08:35;;;;;;;1.95;1.60;;;27.70;50.70;;;;;;5025446;28;20265;-64
2022/08/12 10:13:48;;;;;;;1.42;1.30;;;27.80;49.40;;;;;;5027933;28;20198;-69
2022/08/12 10:16:18;;;;;;;1.73;1.63;;;27.90;49.40;;;;;;5027768;28;20199;-64
2022/08/12 10:18:49;;;;;;;1.67;1.13;;;28.00;48.20;;;;;;5033393;28;20192;-64
2022/08/12 10:21:18;;;;;;;3.15;1.88;;;28.10;48.30;;;;;;5032461;28;20183;-63
2022/08/12 10:23:46;;;;;;;1.30;1.15;;;28.10;48.10;;;;;;5033973;28;20198;-64
2022/08/12 10:31:50;;;;;;;1.58;1.30;;;28.20;47.90;;;;;;5034833;28;20198;-64
2022/08/12 10:34:16;;;;;;;5.47;1.27;;;28.20;47.80;;;;;;5026550;28;20738;-64
2022/08/12 10:36:42;;;;;;;7.00;1.50;;;28.30;47.80;;;;;;5023743;28;20196;-64
2022/08/12 10:39:11;;;;;;;3.38;1.38;;;28.60;47.70;;;;;;5036422;28;20630;-64
2022/08/12 10:44:21;;;;;;;4.00;1.20;;;28.60;47.30;;;;;;5018333;28;20740;-71
2022/08/12 10:46:49;;;;;;;1.90;1.10;;;28.70;46.40;;;;;;5016936;28;20206;-69
2022/08/12 10:49:15;;;;;;;2.72;1.40;;;28.80;46.10;;;;;;5027487;28;20207;-69
2022/08/12 10:51:41;;;;;;;2.25;1.23;;;28.80;46.00;;;;;;5039770;28;20218;-68
2022/08/12 10:54:07;;;;;;;1.30;1.15;;;28.90;46.20;;;;;;5038463;28;20295;-69
2022/08/12 10:56:33;;;;;;;1.52;1.42;;;28.90;45.50;;;;;;5018715;28;20215;-68
2022/08/12 10:58:58;;;;;;;1.20;1.00;;;29.00;46.10;;;;;;5030406;28;20191;-68
2022/08/12 11:01:24;;;;;;;3.25;1.33;;;29.20;48.50;;;;;;5033931;28;20254;-69
2022/08/12 11:03:50;;;;;;;1.40;1.30;;;29.50;45.50;;;;;;5035402;28;20191;-68
2022/08/12 11:06:17;;;;;;;1.85;1.25;;;29.90;46.00;;;;;;5034979;28;20720;-69
2022/08/12 11:08:44;;;;;;;2.80;1.10;;;30.20;43.90;;;;;;5039435;28;20220;-69
2022/08/12 11:11:16;;;;;;;1.13;1.00;;;30.30;44.00;;;;;;5034099;28;20188;-68
2022/08/12 11:13:42;;;;;;;1.05;1.00;;;30.20;43.40;;;;;;5033649;28;20523;-68
2022/08/12 11:16:08;;;;;;;3.22;1.05;;;30.30;43.70;;;;;;5035826;28;20240;-67
2022/08/12 11:18:33;;;;;;;1.42;1.33;;;30.60;43.00;;;;;;5039340;28;20600;-67
2022/08/12 11:20:59;;;;;;;4.68;1.20;;;31.10;43.30;;;;;;5010601;28;20211;-68
2022/08/12 11:23:25;;;;;;;1.20;1.08;;;31.60;42.10;;;;;;5039823;28;20203;-68
2022/08/12 11:25:51;;;;;;;2.38;1.25;;;31.90;42.10;;;;;;5012261;28;20682;-68
2022/08/12 11:28:17;;;;;;;1.30;1.20;;;31.90;40.50;;;;;;5037820;28;20581;-68
2022/08/12 11:30:43;;;;;;;1.15;1.02;;;31.70;40.00;;;;;;5017596;28;20269;-69
2022/08/12 11:33:10;;;;;;;1.30;1.20;;;31.60;40.70;;;;;;5037580;28;20689;-68
2022/08/12 11:35:35;;;;;;;3.33;1.17;;;31.90;41.20;;;;;;5013442;28;20693;-69
2022/08/12 11:38:02;;;;;;;1.38;1.08;;;32.50;39.70;;;;;;5041600;28;20199;-68
2022/08/12 11:40:28;;;;;;;3.53;1.20;;;32.50;39.30;;;;;;5017304;28;20200;-68
2022/08/12 11:42:54;;;;;;;1.48;1.13;;;32.80;39.00;;;;;;5026225;28;20704;-68
2022/08/12 11:45:19;;;;;;;2.45;1.20;;;33.00;38.70;;;;;;5015427;28;20208;-69
2022/08/12 11:47:45;;;;;;;1.30;1.20;;;33.20;38.10;;;;;;5043170;28;20221;-69
2022/08/12 11:50:11;;;;;;;2.83;1.27;;;33.50;37.90;;;;;;5022523;28;20663;-68
2022/08/12 11:52:36;;;;;;;1.20;1.10;;;33.80;38.20;;;;;;5041290;28;20246;-70
2022/08/12 11:55:02;;;;;;;1.08;1.05;;;33.90;37.30;;;;;;5019366;28;20693;-69
2022/08/12 11:57:29;;;;;;;0.93;0.90;;;33.80;36.40;;;;;;5028846;28;20291;-69
2022/08/12 11:59:55;;;;;;;4.25;1.38;;;33.50;36.40;;;;;;5028562;28;20370;-68
2022/08/12 12:02:20;;;;;;;2.05;1.17;;;33.60;36.70;;;;;;5029025;28;20188;-69
2022/08/12 12:04:46;;;;;;;3.28;1.35;;;34.20;35.90;;;;;;5035366;28;20242;-69
2022/08/12 12:07:11;;;;;;;1.90;1.20;;;34.40;36.10;;;;;;5008916;28;20651;-67
2022/08/12 12:09:37;;;;;;;1.60;1.50;;;34.60;36.30;;;;;;5033756;28;20690;-69
2022/08/12 12:12:03;;;;;;;1.60;1.30;;;34.80;34.80;;;;;;5010234;28;20176;-68
2022/08/12 12:14:29;;;;;;;1.30;1.15;;;35.20;35.40;;;;;;5040701;28;20198;-68
2022/08/12 12:16:55;;;;;;;2.55;1.30;;;35.60;34.80;;;;;;5029688;28;20184;-69
2022/08/12 12:19:20;;;;;;;6.15;1.50;;;35.90;33.40;;;;;;5022111;28;20526;-68
2022/08/12 12:21:46;;;;;;;1.25;1.15;;;35.50;34.70;;;;;;5019445;28;20278;-68
2022/08/12 12:24:11;;;;;;;1.38;1.30;;;35.40;34.50;;;;;;5024948;28;20637;-69
2022/08/12 12:26:37;;;;;;;3.97;1.50;;;34.70;34.10;;;;;;5018076;28;20195;-68
2022/08/12 12:29:03;;;;;;;1.25;1.15;;;35.40;34.30;;;;;;5039372;28;20226;-69
2022/08/12 12:31:28;;;;;;;1.58;1.48;;;36.60;33.60;;;;;;5025934;28;20190;-69
2022/08/12 12:33:54;;;;;;;2.70;1.50;;;38.00;32.70;;;;;;5024470;28;20195;-69
2022/08/12 12:36:20;;;;;;;5.45;1.25;;;38.40;31.10;;;;;;5014123;28;20279;-69
2022/08/12 12:38:46;;;;;;;1.08;1.08;;;38.10;29.80;;;;;;5021875;28;20203;-68
2022/08/12 12:41:11;;;;;;;1.42;1.27;;;37.40;31.10;;;;;;5025034;28;20191;-69
2022/08/12 12:43:36;;;;;;;1.38;1.27;;;37.50;29.80;;;;;;5024097;28;20669;-69
2022/08/12 12:46:02;;;;;;;3.42;1.30;;;37.20;30.20;;;;;;5014976;28;20215;-69
2022/08/12 12:48:27;;;;;;;1.73;1.00;;;36.10;31.10;;;;;;5028941;28;20225;-69
2022/08/12 12:51:14;;;;;;;1.08;1.08;;;36.00;31.60;;;;;;5018650;28;20226;-68
2022/08/12 12:53:46;;;;;;;1.52;1.08;;;36.80;31.10;;;;;;5009933;28;20524;-69
2022/08/12 12:56:20;;;;;;;1.60;1.05;;;37.40;30.30;;;;;;5015402;28;20342;-69
2022/08/12 12:58:50;;;;;;;1.15;1.02;;;38.00;29.90;;;;;;5025112;28;20207;-69
2022/08/12 13:01:17;;;;;;;3.25;1.33;;;38.30;29.20;;;;;;5016394;28;20238;-69
2022/08/12 13:03:44;;;;;;;2.75;1.30;;;38.10;29.30;;;;;;5025024;28;20554;-69
2022/08/12 13:06:11;;;;;;;1.15;1.15;;;37.90;29.50;;;;;;5026053;28;20618;-69
2022/08/12 13:08:36;;;;;;;2.03;1.20;;;38.30;29.30;;;;;;5040921;28;20211;-69
2022/08/12 13:11:03;;;;;;;1.63;1.08;;;38.90;29.40;;;;;;5020092;28;20563;-70
2022/08/12 13:13:35;;;;;;;1.38;1.20;;;38.80;28.20;;;;;;5032768;28;20199;-69
2022/08/12 13:16:02;;;;;;;4.35;1.30;;;37.00;29.40;;;;;;5031455;28;20195;-68
2022/08/12 13:18:37;;;;;;;1.10;1.00;;;36.50;30.00;;;;;;5018526;28;20564;-68
2022/08/12 13:21:04;;;;;;;2.45;1.10;;;37.20;29.90;;;;;;5006989;28;20251;-69
2022/08/12 13:23:30;;;;;;;2.15;1.13;;;37.10;29.50;;;;;;5044375;28;20190;-69
2022/08/12 13:25:56;;;;;;;2.33;1.20;;;36.60;30.00;;;;;;5010046;28;20223;-69
2022/08/12 13:28:23;;;;;;;1.52;1.42;;;36.60;29.90;;;;;;5023788;28;20622;-68
2022/08/12 13:30:51;;;;;;;1.40;1.30;;;35.40;30.00;;;;;;5016237;28;20204;-68
2022/08/12 13:33:21;;;;;;;1.73;1.20;;;35.10;30.90;;;;;;5019872;28;20667;-68
2022/08/12 13:35:49;;;;;;;2.00;1.30;;;34.80;31.00;;;;;;5019070;28;20204;-68
2022/08/12 13:38:15;;;;;;;1.60;1.35;;;33.70;32.20;;;;;;5031207;28;20188;-68
2022/08/12 13:40:40;;;;;;;4.88;1.10;;;33.60;32.60;;;;;;5018466;28;20222;-68
2022/08/12 13:43:06;;;;;;;2.35;1.23;;;34.70;31.60;;;;;;5036155;28;20196;-69
2022/08/12 13:45:33;;;;;;;1.48;1.38;;;35.90;30.60;;;;;;5030787;28;20286;-69
2022/08/12 13:48:01;;;;;;;1.77;1.52;;;37.20;29.80;;;;;;5029199;28;20211;-69
2022/08/12 13:50:35;;;;;;;1.50;1.40;;;37.90;29.20;;;;;;5023413;28;20200;-70
2022/08/12 13:53:18;;;;;;;4.55;1.65;;;37.70;29.40;;;;;;5024678;28;20702;-69
2022/08/12 13:55:50;;;;;;;1.42;1.33;;;36.10;30.00;;;;;;5003237;28;20222;-69
2022/08/12 13:58:20;;;;;;;3.03;1.30;;;35.60;30.80;;;;;;5035388;28;20237;-68
2022/08/12 14:00:49;;;;;;;3.70;1.48;;;36.40;30.00;;;;;;5019226;28;20242;-69
2022/08/12 14:03:20;;;;;;;1.42;1.30;;;36.80;29.90;;;;;;5030835;28;20551;-69
2022/08/12 14:05:46;;;;;;;1.50;1.40;;;37.50;29.50;;;;;;5007873;28;20209;-69
2022/08/12 14:08:15;;;;;;;1.67;1.42;;;37.80;29.10;;;;;;5043210;28;20219;-69
2022/08/12 14:10:52;;;;;;;2.55;1.10;;;37.20;29.50;;;;;;5024564;28;20219;-69
2022/08/12 14:13:23;;;;;;;1.50;1.10;;;36.30;29.90;;;;;;5025289;28;20270;-69
2022/08/12 14:15:51;;;;;;;3.13;1.52;;;35.80;30.80;;;;;;4969052;28;20746;-70
2022/08/12 14:18:21;;;;;;;1.42;1.33;;;34.70;31.50;;;;;;5041787;28;20227;-69
2022/08/12 14:21:01;;;;;;;2.70;1.50;;;34.80;31.90;;;;;;5034188;28;20536;-68
2022/08/12 14:23:29;;;;;;;1.38;1.27;;;35.50;31.20;;;;;;5014739;28;20199;-68
2022/08/12 14:25:57;;;;;;;5.15;1.38;;;36.10;30.40;;;;;;5023132;28;20616;-69
2022/08/12 14:28:23;;;;;;;2.75;1.48;;;36.40;30.60;;;;;;5037320;28;20219;-67
2022/08/12 14:30:55;;;;;;;1.80;1.42;;;36.90;29.90;;;;;;5021820;28;20299;-68
2022/08/12 14:33:25;;;;;;;2.20;1.40;;;36.20;30.20;;;;;;5038165;28;20195;-69
2022/08/12 14:35:52;;;;;;;1.90;1.20;;;35.30;31.20;;;;;;5020355;28;20200;-69
2022/08/12 14:42:14;;;;;;;1.30;1.27;;;37.40;30.00;;;;;;5009615;28;20250;-67
2022/08/12 14:44:39;;;;;;;2.50;1.30;;;38.30;29.10;;;;;;5031755;28;20230;-68
2022/08/12 14:47:07;;;;;;;1.33;1.27;;;39.70;28.40;;;;;;5027957;28;20211;-68
2022/08/12 14:49:33;;;;;;;2.47;1.45;;;39.80;28.20;;;;;;5029138;28;20235;-68
2022/08/12 14:51:58;;;;;;;1.20;1.00;;;39.30;28.00;;;;;;5017137;28;20330;-70